Anton Chico, New Mexico
Current Conditions -  °F | °C
As of 4:53 AM on Saturday 01 Nov 2014 (Local Time) from KLVS Reporting Station
Scattered Clouds Scattered Clouds  
Wind Chill: 30°   Ceiling: Unl
Heat Index: 38°   Visibility: 10mi
Dew Point: 30°   Wind: 12mph
Humidity: 73%   Direction: 180°S
Pressure: 30.24"   Gusts: NA
Location:  35.2°N, 105.14°W
Report Text: KLVS 011053Z AUTO 18010KT 10SM SCT036 03/M01 A3024 RMK AO2 SLP187 T00331011
Loading
Personal Weather Stations






























Interactive Weather Map
Tropical Storm Tracking
New forecast layout! Learn more

10-Day Weather Forecast

Advertisements
Track Severe Weather on mobile